Time;durP1;ratioP1;P1;durP2;ratioP2;P2;SDS_P1;SDS_P2;PMS_P1;PMS_P2;Temp;Humidity;BMP_temperature;BMP_pressure;BME280_temperature;BME280_humidity;BME280_pressure;Samples;Min_cycle;Max_cycle;Signal;HPM_P1;HPM_P2
2022/05/13 00:01:18;;;;;;;338.40;102.95;;;;;;;;;;5096254;27;20197;-72
2022/05/13 00:03:45;;;;;;;343.52;105.35;;;;;;;;;;5097057;27;20540;-72
2022/05/13 00:06:20;;;;;;;340.48;103.10;;;;;;;;;;5096042;27;20562;-72
2022/05/13 00:08:48;;;;;;;333.15;96.25;;;;;;;;;;5096403;27;20253;-73
2022/05/13 00:11:15;;;;;;;338.70;101.07;;;;;;;;;;5096373;27;20227;-73
2022/05/13 00:13:42;;;;;;;345.45;104.82;;;;;;;;;;5096424;27;20205;-72
2022/05/13 00:16:10;;;;;;;338.38;97.95;;;;;;;;;;5096084;27;20213;-72
2022/05/13 00:18:37;;;;;;;332.15;101.35;;;;;;;;;;5096165;27;20205;-72
2022/05/13 00:21:04;;;;;;;352.58;110.30;;;;;;;;;;5095991;27;20214;-72
2022/05/13 00:23:32;;;;;;;339.52;103.65;;;;;;;;;;5096687;27;20213;-72
2022/05/13 00:26:00;;;;;;;339.42;101.22;;;;;;;;;;5096209;27;20300;-72
2022/05/13 00:28:27;;;;;;;337.55;98.20;;;;;;;;;;5097107;27;20319;-72
2022/05/13 00:30:54;;;;;;;343.65;102.18;;;;;;;;;;5095984;27;20235;-72
2022/05/13 00:33:22;;;;;;;336.42;99.20;;;;;;;;;;5096232;27;20285;-71
2022/05/13 00:35:49;;;;;;;336.95;100.93;;;;;;;;;;5096361;27;20209;-71
2022/05/13 00:38:17;;;;;;;336.98;96.40;;;;;;;;;;5095553;27;20201;-72
2022/05/13 00:40:44;;;;;;;330.48;92.47;;;;;;;;;;5096123;27;20210;-72
2022/05/13 00:43:13;;;;;;;328.33;93.72;;;;;;;;;;5097845;27;20211;-72
2022/05/13 00:45:40;;;;;;;331.13;90.13;;;;;;;;;;5099754;27;20205;-72
2022/05/13 00:48:08;;;;;;;332.17;97.07;;;;;;;;;;5099470;27;20240;-72
2022/05/13 00:50:36;;;;;;;330.42;96.95;;;;;;;;;;5099409;27;20605;-72
2022/05/13 00:53:03;;;;;;;333.38;98.45;;;;;;;;;;5099206;27;20206;-72
2022/05/13 00:55:32;;;;;;;339.42;99.47;;;;;;;;;;5098259;27;20202;-72
2022/05/13 00:58:00;;;;;;;341.42;102.25;;;;;;;;;;5099295;27;20270;-73
2022/05/13 01:00:28;;;;;;;337.85;101.05;;;;;;;;;;5099352;27;20213;-72
2022/05/13 01:02:55;;;;;;;335.88;97.38;;;;;;;;;;5099175;27;20202;-72
2022/05/13 01:05:22;;;;;;;344.60;100.00;;;;;;;;;;5098795;27;20450;-72
2022/05/13 01:07:50;;;;;;;331.38;93.30;;;;;;;;;;5098778;27;20725;-72
2022/05/13 01:10:19;;;;;;;338.95;95.53;;;;;;;;;;5098813;27;20213;-72
2022/05/13 01:12:52;;;;;;;335.20;93.57;;;;;;;;;;5099501;27;20482;-72
2022/05/13 01:15:20;;;;;;;331.75;90.53;;;;;;;;;;5098892;27;20209;-72
2022/05/13 01:20:35;;;;;;;330.17;90.95;;;;;;;;;;5098836;27;20624;-73
2022/05/13 01:23:09;;;;;;;332.45;96.53;;;;;;;;;;5099030;27;20212;-72
2022/05/13 01:25:39;;;;;;;336.80;93.72;;;;;;;;;;5098305;27;20612;-72
2022/05/13 01:28:07;;;;;;;339.02;98.72;;;;;;;;;;5098611;27;20232;-72
2022/05/13 01:30:34;;;;;;;339.50;100.15;;;;;;;;;;5098362;27;20485;-72
2022/05/13 01:33:02;;;;;;;344.80;101.68;;;;;;;;;;5098634;27;20205;-72
2022/05/13 01:35:29;;;;;;;339.75;98.45;;;;;;;;;;5098923;27;20213;-72
2022/05/13 01:37:56;;;;;;;331.05;92.35;;;;;;;;;;5098589;27;20241;-73
2022/05/13 01:40:24;;;;;;;340.08;103.40;;;;;;;;;;5098588;27;20304;-73
2022/05/13 01:42:55;;;;;;;332.27;92.68;;;;;;;;;;5098578;27;20624;-71
2022/05/13 01:45:23;;;;;;;333.05;94.72;;;;;;;;;;5098179;27;20221;-71
2022/05/13 01:47:50;;;;;;;335.77;100.93;;;;;;;;;;5099117;27;20316;-73
2022/05/13 01:50:17;;;;;;;346.58;103.70;;;;;;;;;;5098836;27;20212;-73
2022/05/13 01:52:44;;;;;;;338.85;98.68;;;;;;;;;;5098168;27;20578;-73
2022/05/13 01:55:11;;;;;;;340.30;103.60;;;;;;;;;;5097772;27;20288;-71
2022/05/13 01:57:39;;;;;;;345.45;101.55;;;;;;;;;;5097764;27;20323;-72
2022/05/13 02:00:08;;;;;;;342.83;100.55;;;;;;;;;;5098746;27;20347;-73
2022/05/13 02:03:44;;;;;;;340.65;100.30;;;;;;;;;;5098301;27;20615;-72
2022/05/13 02:05:22;;;;;;;342.20;100.82;;;;;;;;;;5097961;27;20473;-72
2022/05/13 02:07:49;;;;;;;340.35;99.95;;;;;;;;;;5098063;27;20229;-73
2022/05/13 02:10:16;;;;;;;345.23;97.07;;;;;;;;;;5098570;27;20209;-72
2022/05/13 02:12:47;;;;;;;343.05;97.68;;;;;;;;;;5097861;27;20664;-72
2022/05/13 02:15:14;;;;;;;342.35;99.45;;;;;;;;;;5098069;27;20237;-70
2022/05/13 02:17:41;;;;;;;338.38;99.25;;;;;;;;;;5097970;27;20205;-72
2022/05/13 02:20:10;;;;;;;342.13;101.20;;;;;;;;;;5097433;27;20582;-72
2022/05/13 02:22:37;;;;;;;336.27;92.95;;;;;;;;;;5097858;27;20205;-72
2022/05/13 02:25:05;;;;;;;339.08;99.78;;;;;;;;;;5097952;27;20208;-72
2022/05/13 02:27:32;;;;;;;338.60;100.70;;;;;;;;;;5097671;27;20233;-72
2022/05/13 02:30:00;;;;;;;333.88;93.80;;;;;;;;;;5098593;27;20590;-72
2022/05/13 02:32:27;;;;;;;344.23;105.47;;;;;;;;;;5096989;27;20274;-72
2022/05/13 02:34:54;;;;;;;347.80;105.78;;;;;;;;;;5096781;27;20497;-72
2022/05/13 02:37:21;;;;;;;334.83;98.50;;;;;;;;;;5097127;27;20290;-72
2022/05/13 02:39:49;;;;;;;340.02;98.80;;;;;;;;;;5097248;27;20349;-72
2022/05/13 02:42:16;;;;;;;333.95;96.15;;;;;;;;;;5097011;27;20206;-72
2022/05/13 02:44:44;;;;;;;345.73;96.55;;;;;;;;;;5097098;27;20288;-71
2022/05/13 02:47:11;;;;;;;336.23;92.00;;;;;;;;;;5097146;27;20316;-72
2022/05/13 02:49:38;;;;;;;334.92;95.65;;;;;;;;;;5096867;27;20241;-71
2022/05/13 02:52:06;;;;;;;331.25;92.63;;;;;;;;;;5097422;27;20253;-73
2022/05/13 02:54:34;;;;;;;339.00;96.13;;;;;;;;;;5097071;27;20597;-71
2022/05/13 02:57:01;;;;;;;340.25;96.85;;;;;;;;;;5096562;27;20189;-72
2022/05/13 02:59:28;;;;;;;333.25;91.85;;;;;;;;;;5097281;27;20205;-72
2022/05/13 03:01:56;;;;;;;338.33;94.25;;;;;;;;;;5097058;27;20597;-72
2022/05/13 03:04:24;;;;;;;336.33;95.22;;;;;;;;;;5097060;27;20300;-72
2022/05/13 03:06:52;;;;;;;335.48;92.75;;;;;;;;;;5097723;27;20221;-72
2022/05/13 03:09:19;;;;;;;326.65;86.15;;;;;;;;;;5096972;27;20206;-72
2022/05/13 03:11:48;;;;;;;333.83;91.20;;;;;;;;;;5097223;27;20361;-70
2022/05/13 03:14:15;;;;;;;325.10;86.68;;;;;;;;;;5096623;27;20205;-73
2022/05/13 03:16:42;;;;;;;328.55;86.80;;;;;;;;;;5095941;27;20615;-72
2022/05/13 03:19:12;;;;;;;337.50;93.45;;;;;;;;;;5096955;27;20235;-72
2022/05/13 03:21:40;;;;;;;330.70;91.47;;;;;;;;;;5097769;27;20547;-72
2022/05/13 03:24:08;;;;;;;327.58;88.13;;;;;;;;;;5095952;28;20186;-72
2022/05/13 03:26:35;;;;;;;334.65;90.85;;;;;;;;;;5096604;28;20665;-72
2022/05/13 03:29:04;;;;;;;337.67;95.13;;;;;;;;;;5096650;27;20204;-71
2022/05/13 03:31:34;;;;;;;334.35;90.40;;;;;;;;;;5096351;28;20343;-72
2022/05/13 03:34:01;;;;;;;340.83;93.35;;;;;;;;;;5096162;28;20597;-71
2022/05/13 03:36:28;;;;;;;332.75;91.68;;;;;;;;;;5096086;28;20206;-72
2022/05/13 03:38:56;;;;;;;333.77;89.15;;;;;;;;;;5095949;28;20213;-72
2022/05/13 03:41:23;;;;;;;334.05;92.18;;;;;;;;;;5096701;28;20213;-72
2022/05/13 03:43:50;;;;;;;326.42;85.28;;;;;;;;;;5096725;27;20525;-72
2022/05/13 03:46:17;;;;;;;336.75;91.18;;;;;;;;;;5096774;27;20318;-72
2022/05/13 03:48:44;;;;;;;336.08;90.65;;;;;;;;;;5096909;27;20341;-73
2022/05/13 03:51:12;;;;;;;332.80;90.68;;;;;;;;;;5096779;27;20562;-72
2022/05/13 03:53:39;;;;;;;338.65;93.90;;;;;;;;;;5093099;27;20884;-71
2022/05/13 03:56:07;;;;;;;323.83;85.60;;;;;;;;;;5090991;28;20248;-72
2022/05/13 04:01:23;;;;;;;333.33;87.13;;;;;;;;;;5093092;28;20212;-72
2022/05/13 04:03:50;;;;;;;334.45;91.18;;;;;;;;;;5095735;28;20668;-72
2022/05/13 04:09:02;;;;;;;333.67;87.43;;;;;;;;;;5096235;27;20377;-70
2022/05/13 04:11:31;;;;;;;339.70;89.40;;;;;;;;;;5096097;28;20269;-72
2022/05/13 04:16:55;;;;;;;330.73;85.40;;;;;;;;;;5032056;28;20211;-72
2022/05/13 04:19:24;;;;;;;337.33;88.80;;;;;;;;;;5079908;28;20198;-72
2022/05/13 04:21:52;;;;;;;334.90;87.97;;;;;;;;;;5095984;28;20574;-72
2022/05/13 04:24:20;;;;;;;337.67;91.25;;;;;;;;;;5094573;28;20201;-72
2022/05/13 04:26:48;;;;;;;337.38;93.05;;;;;;;;;;5095631;28;20217;-72
2022/05/13 04:29:18;;;;;;;337.15;91.40;;;;;;;;;;5095540;28;20201;-72
2022/05/13 04:31:45;;;;;;;334.08;90.07;;;;;;;;;;5095648;28;20204;-71
2022/05/13 04:34:13;;;;;;;346.30;97.30;;;;;;;;;;5090369;27;20210;-71
2022/05/13 04:36:40;;;;;;;339.30;93.32;;;;;;;;;;5082695;27;20210;-72
2022/05/13 04:39:09;;;;;;;337.30;92.50;;;;;;;;;;5094787;27;20284;-73
2022/05/13 04:44:23;;;;;;;339.15;90.32;;;;;;;;;;5094212;28;20219;-72
2022/05/13 04:46:50;;;;;;;338.83;93.22;;;;;;;;;;5095949;27;20260;-73
2022/05/13 04:49:17;;;;;;;349.83;98.30;;;;;;;;;;5096255;27;20266;-72
2022/05/13 04:51:47;;;;;;;348.73;101.78;;;;;;;;;;5094091;27;20193;-73
2022/05/13 04:54:15;;;;;;;335.75;90.43;;;;;;;;;;5094648;28;20205;-72
2022/05/13 04:56:42;;;;;;;342.38;93.18;;;;;;;;;;5092899;28;20218;-72
2022/05/13 04:59:09;;;;;;;338.17;96.15;;;;;;;;;;5093593;28;20209;-70
2022/05/13 05:01:37;;;;;;;346.90;105.25;;;;;;;;;;5094116;28;20342;-72
2022/05/13 05:04:04;;;;;;;338.77;95.03;;;;;;;;;;5092606;28;20189;-72
2022/05/13 05:06:31;;;;;;;345.65;103.20;;;;;;;;;;5093723;27;20207;-72
2022/05/13 05:08:59;;;;;;;343.00;102.88;;;;;;;;;;5093907;27;20202;-72
2022/05/13 05:11:26;;;;;;;352.65;101.90;;;;;;;;;;5094118;27;20284;-71
2022/05/13 05:13:53;;;;;;;350.58;101.18;;;;;;;;;;5092995;27;20198;-73
2022/05/13 05:16:22;;;;;;;344.35;99.00;;;;;;;;;;5094454;28;20220;-72
2022/05/13 05:18:50;;;;;;;345.48;101.15;;;;;;;;;;5093960;28;20466;-73
2022/05/13 05:21:17;;;;;;;342.63;100.13;;;;;;;;;;5093989;27;20629;-73
2022/05/13 05:23:44;;;;;;;346.48;102.00;;;;;;;;;;5094293;27;20629;-72
2022/05/13 05:26:11;;;;;;;343.92;103.22;;;;;;;;;;5092631;27;20210;-72
2022/05/13 05:28:39;;;;;;;349.85;110.30;;;;;;;;;;5091738;27;20224;-72
2022/05/13 05:31:06;;;;;;;352.10;111.32;;;;;;;;;;5094339;27;20286;-72
2022/05/13 05:33:34;;;;;;;347.83;110.10;;;;;;;;;;5093488;27;20213;-73
2022/05/13 05:36:01;;;;;;;352.05;116.15;;;;;;;;;;5093709;27;20206;-72
2022/05/13 05:38:29;;;;;;;343.35;107.32;;;;;;;;;;5095953;27;20602;-72
2022/05/13 05:40:57;;;;;;;338.45;105.57;;;;;;;;;;5094733;27;20541;-73
2022/05/13 05:43:27;;;;;;;352.10;111.32;;;;;;;;;;5093765;27;20212;-70
2022/05/13 05:45:54;;;;;;;349.33;113.82;;;;;;;;;;5095171;27;20221;-72
2022/05/13 05:48:22;;;;;;;337.05;96.97;;;;;;;;;;5095865;28;20802;-72
2022/05/13 05:50:52;;;;;;;349.17;106.80;;;;;;;;;;5095290;28;20482;-73
2022/05/13 05:58:47;;;;;;;336.80;100.63;;;;;;;;;;5093919;28;20639;-73
2022/05/13 06:01:14;;;;;;;347.60;107.20;;;;;;;;;;5096099;28;20217;-73
2022/05/13 06:03:42;;;;;;;343.63;100.80;;;;;;;;;;5095986;28;20209;-72
2022/05/13 06:06:12;;;;;;;347.60;108.47;;;;;;;;;;5095396;28;20642;-72
2022/05/13 06:08:40;;;;;;;349.13;110.20;;;;;;;;;;5096349;28;20277;-72
2022/05/13 06:11:09;;;;;;;374.75;120.50;;;;;;;;;;5095470;28;20266;-72
2022/05/13 06:13:36;;;;;;;348.30;111.05;;;;;;;;;;5089638;28;20214;-73
2022/05/13 06:16:03;;;;;;;348.50;108.28;;;;;;;;;;5076599;28;20541;-73
2022/05/13 06:18:31;;;;;;;349.85;109.78;;;;;;;;;;5077157;28;20210;-72
2022/05/13 06:20:59;;;;;;;351.70;116.55;;;;;;;;;;5076366;28;20213;-74
2022/05/13 06:23:28;;;;;;;344.15;104.10;;;;;;;;;;5075922;28;20719;-72
2022/05/13 06:25:56;;;;;;;351.23;112.93;;;;;;;;;;5076297;28;20296;-71
2022/05/13 06:28:27;;;;;;;354.35;115.97;;;;;;;;;;5076595;28;20324;-74
2022/05/13 06:30:55;;;;;;;354.50;120.90;;;;;;;;;;5076116;28;20478;-71
2022/05/13 06:33:23;;;;;;;354.05;117.80;;;;;;;;;;5076306;28;20210;-72
2022/05/13 06:35:51;;;;;;;346.85;111.78;;;;;;;;;;5075825;28;20322;-72
2022/05/13 06:38:20;;;;;;;341.58;106.30;;;;;;;;;;5076512;28;20209;-73
2022/05/13 06:40:48;;;;;;;348.10;114.20;;;;;;;;;;5076212;28;20212;-72
2022/05/13 06:43:18;;;;;;;347.52;111.78;;;;;;;;;;5076025;28;20718;-72
2022/05/13 06:45:45;;;;;;;347.05;111.45;;;;;;;;;;5074010;28;20239;-72
2022/05/13 06:48:13;;;;;;;351.42;110.78;;;;;;;;;;5078842;28;20318;-73
2022/05/13 06:50:42;;;;;;;361.95;116.40;;;;;;;;;;5093826;27;20535;-73
2022/05/13 06:53:09;;;;;;;353.02;117.18;;;;;;;;;;5095736;27;20236;-72
2022/05/13 06:55:44;;;;;;;351.38;113.53;;;;;;;;;;5106296;27;20192;-73
2022/05/13 06:58:12;;;;;;;347.10;114.28;;;;;;;;;;5113589;27;20290;-73
2022/05/13 07:00:40;;;;;;;347.13;112.63;;;;;;;;;;5096082;27;20201;-73
2022/05/13 07:03:07;;;;;;;350.10;114.40;;;;;;;;;;5088593;27;20490;-74
2022/05/13 07:05:35;;;;;;;364.80;128.35;;;;;;;;;;5078374;28;20209;-71
2022/05/13 07:08:03;;;;;;;356.67;124.00;;;;;;;;;;5075642;28;20665;-73
2022/05/13 07:10:30;;;;;;;349.20;112.07;;;;;;;;;;5075678;28;20210;-73
2022/05/13 07:13:00;;;;;;;345.50;111.38;;;;;;;;;;5085242;28;20201;-73
2022/05/13 07:15:27;;;;;;;355.17;119.80;;;;;;;;;;5092418;27;20675;-72
2022/05/13 07:18:04;;;;;;;356.20;121.32;;;;;;;;;;5094931;28;20210;-71
2022/05/13 07:20:36;;;;;;;351.85;118.95;;;;;;;;;;5096000;27;20503;-71
2022/05/13 07:23:04;;;;;;;353.77;124.85;;;;;;;;;;5090681;27;20213;-73
2022/05/13 07:25:31;;;;;;;362.45;133.90;;;;;;;;;;5096272;27;20313;-73
2022/05/13 07:28:01;;;;;;;365.20;139.20;;;;;;;;;;5095288;27;20232;-71
2022/05/13 07:30:40;;;;;;;347.35;125.75;;;;;;;;;;5093106;27;20209;-73
2022/05/13 07:33:14;;;;;;;359.42;137.35;;;;;;;;;;5115127;27;20208;-71
2022/05/13 07:35:47;;;;;;;346.08;111.55;;;;;;;;;;5093493;27;20262;-71
2022/05/13 07:38:15;;;;;;;350.23;112.32;;;;;;;;;;5076294;28;20742;-72
2022/05/13 07:43:29;;;;;;;341.67;103.88;;;;;;;;;;5075752;28;20610;-72
2022/05/13 07:46:01;;;;;;;350.45;117.53;;;;;;;;;;5090028;27;20202;-72
2022/05/13 07:48:32;;;;;;;353.10;112.03;;;;;;;;;;5089805;27;20253;-73
2022/05/13 07:51:02;;;;;;;350.98;113.03;;;;;;;;;;5076125;28;20490;-72
2022/05/13 07:53:30;;;;;;;354.73;114.35;;;;;;;;;;5074037;28;20217;-72
2022/05/13 07:55:57;;;;;;;361.33;116.55;;;;;;;;;;5074968;28;20648;-72
2022/05/13 07:58:30;;;;;;;357.80;125.03;;;;;;;;;;5075068;28;20210;-73
2022/05/13 08:01:00;;;;;;;351.52;118.72;;;;;;;;;;5075387;28;20617;-72
2022/05/13 08:03:30;;;;;;;345.20;108.07;;;;;;;;;;5079348;28;20189;-71
2022/05/13 08:06:07;;;;;;;352.42;115.90;;;;;;;;;;5094536;28;20486;-73
2022/05/13 08:08:36;;;;;;;352.40;120.25;;;;;;;;;;5082548;28;20225;-72
2022/05/13 08:11:05;;;;;;;343.95;111.93;;;;;;;;;;5088080;28;20256;-72
2022/05/13 08:13:38;;;;;;;350.98;114.47;;;;;;;;;;5074266;28;20216;-72
2022/05/13 08:16:06;;;;;;;351.77;117.93;;;;;;;;;;5074243;28;20681;-72
2022/05/13 08:18:34;;;;;;;350.08;114.13;;;;;;;;;;5074024;28;20264;-72
2022/05/13 08:21:02;;;;;;;348.77;115.07;;;;;;;;;;5072897;28;20243;-71
2022/05/13 08:23:32;;;;;;;362.63;123.30;;;;;;;;;;5072617;28;20278;-71
2022/05/13 08:26:01;;;;;;;349.02;113.60;;;;;;;;;;5072216;28;20210;-71
2022/05/13 08:28:29;;;;;;;353.50;117.30;;;;;;;;;;5073134;28;20359;-73
2022/05/13 08:31:06;;;;;;;357.42;118.63;;;;;;;;;;5081001;28;20248;-73
2022/05/13 08:33:34;;;;;;;360.48;123.38;;;;;;;;;;5095513;27;20209;-73
2022/05/13 08:36:08;;;;;;;369.70;131.82;;;;;;;;;;5095094;27;20213;-72
2022/05/13 08:38:38;;;;;;;357.08;117.95;;;;;;;;;;5092617;27;20209;-72
2022/05/13 08:41:18;;;;;;;352.85;115.82;;;;;;;;;;5087579;27;20228;-73
2022/05/13 08:46:35;;;;;;;358.15;126.20;;;;;;;;;;5086000;28;20216;-72
2022/05/13 08:49:08;;;;;;;355.70;119.43;;;;;;;;;;5094141;28;20229;-74
2022/05/13 08:52:00;;;;;;;365.25;140.82;;;;;;;;;;5094851;28;20214;-73
2022/05/13 08:54:34;;;;;;;373.10;128.30;;;;;;;;;;5094343;28;20206;-72
2022/05/13 08:57:21;;;;;;;367.23;128.20;;;;;;;;;;5086741;27;20198;-71
2022/05/13 08:59:57;;;;;;;366.23;135.10;;;;;;;;;;5075711;28;20503;-72
2022/05/13 09:05:27;;;;;;;360.95;134.73;;;;;;;;;;5097228;27;20204;-72
2022/05/13 09:07:55;;;;;;;357.25;127.68;;;;;;;;;;5081346;28;20213;-71
2022/05/13 09:10:25;;;;;;;357.88;126.25;;;;;;;;;;5085984;28;20204;-70
2022/05/13 09:12:54;;;;;;;364.38;131.25;;;;;;;;;;5097306;27;20582;-72
2022/05/13 09:15:24;;;;;;;360.60;126.47;;;;;;;;;;5081742;28;20201;-73
2022/05/13 09:18:00;;;;;;;369.23;155.00;;;;;;;;;;5076791;28;20270;-73
2022/05/13 09:20:27;;;;;;;354.57;120.27;;;;;;;;;;5079425;28;20494;-73
2022/05/13 09:22:58;;;;;;;388.65;148.38;;;;;;;;;;5098590;27;20452;-71
2022/05/13 09:25:48;;;;;;;364.30;134.90;;;;;;;;;;5096882;27;20205;-72
2022/05/13 09:28:24;;;;;;;360.37;129.53;;;;;;;;;;5098770;27;20224;-71
2022/05/13 09:30:55;;;;;;;381.73;138.60;;;;;;;;;;5078876;28;20478;-72
2022/05/13 09:33:31;;;;;;;367.10;131.07;;;;;;;;;;5076281;28;20451;-73
2022/05/13 09:36:04;;;;;;;357.20;125.38;;;;;;;;;;5077018;28;20491;-71
2022/05/13 09:38:34;;;;;;;357.58;129.10;;;;;;;;;;5077574;28;20556;-72
2022/05/13 09:41:02;;;;;;;366.50;128.40;;;;;;;;;;5075655;28;20206;-71
2022/05/13 09:43:37;;;;;;;364.00;137.93;;;;;;;;;;5094649;27;20205;-72
2022/05/13 09:46:06;;;;;;;369.60;132.30;;;;;;;;;;5097631;27;20446;-72
2022/05/13 09:48:39;;;;;;;367.90;132.90;;;;;;;;;;5076058;28;20908;-72
2022/05/13 09:51:25;;;;;;;366.67;137.53;;;;;;;;;;5085592;27;20444;-73
2022/05/13 09:54:12;;;;;;;361.87;134.93;;;;;;;;;;5095109;27;20482;-72
2022/05/13 09:56:47;;;;;;;362.30;130.15;;;;;;;;;;5095691;27;20505;-72
2022/05/13 09:59:19;;;;;;;360.47;139.40;;;;;;;;;;5095443;27;20525;-73
2022/05/13 10:01:50;;;;;;;368.13;135.90;;;;;;;;;;5095900;27;20534;-72
2022/05/13 10:04:28;;;;;;;380.50;149.73;;;;;;;;;;5092892;28;20452;-72
2022/05/13 10:07:05;;;;;;;367.27;138.07;;;;;;;;;;5091560;28;20445;-73
2022/05/13 10:15:47;;;;;;;343.00;123.27;;;;;;;;;;5042582;28;20446;-73
2022/05/13 10:18:23;;;;;;;348.53;132.03;;;;;;;;;;5014485;28;1734621;-71
2022/05/13 10:20:58;;;;;;;308.60;105.15;;;;;;;;;;5076200;28;20322;-73
2022/05/13 10:23:35;;;;;;;328.95;131.48;;;;;;;;;;5075681;28;20210;-71
2022/05/13 10:26:12;;;;;;;324.60;119.00;;;;;;;;;;5073461;28;20225;-71
2022/05/13 10:28:44;;;;;;;309.08;103.30;;;;;;;;;;5073309;28;20313;-72
2022/05/13 10:31:41;;;;;;;315.73;114.57;;;;;;;;;;5074358;28;20209;-73
2022/05/13 10:34:15;;;;;;;320.27;114.28;;;;;;;;;;5078880;28;20506;-73
2022/05/13 10:36:47;;;;;;;318.17;111.15;;;;;;;;;;5075205;28;20259;-73
2022/05/13 10:39:19;;;;;;;320.77;115.03;;;;;;;;;;5080622;28;20868;-71
2022/05/13 10:41:58;;;;;;;325.08;115.50;;;;;;;;;;5077897;28;20205;-71
2022/05/13 10:44:34;;;;;;;316.38;114.45;;;;;;;;;;5093346;28;20194;-72
2022/05/13 10:47:12;;;;;;;325.63;128.30;;;;;;;;;;5083505;28;20615;-71
2022/05/13 10:49:42;;;;;;;323.70;114.35;;;;;;;;;;5097341;28;20193;-72
2022/05/13 10:52:16;;;;;;;320.30;110.93;;;;;;;;;;5082753;28;20229;-72
2022/05/13 10:54:51;;;;;;;305.67;103.63;;;;;;;;;;5074865;28;20193;-72
2022/05/13 10:57:36;;;;;;;311.30;103.50;;;;;;;;;;5082943;28;20204;-76
2022/05/13 11:00:22;;;;;;;327.67;109.03;;;;;;;;;;5080122;28;20288;-74
2022/05/13 11:03:09;;;;;;;318.15;104.80;;;;;;;;;;5074749;28;20246;-72
2022/05/13 11:05:39;;;;;;;393.75;222.68;;;;;;;;;;5074820;28;20202;-71
2022/05/13 11:08:17;;;;;;;399.65;235.55;;;;;;;;;;5076082;28;20507;-72
2022/05/13 11:10:49;;;;;;;417.75;281.45;;;;;;;;;;5093606;28;20262;-72
2022/05/13 11:13:31;;;;;;;376.83;187.88;;;;;;;;;;5094243;28;20274;-72
2022/05/13 11:16:01;;;;;;;357.65;138.88;;;;;;;;;;5078615;28;20263;-72
2022/05/13 11:18:33;;;;;;;366.27;158.30;;;;;;;;;;5094528;28;20209;-72
2022/05/13 11:21:15;;;;;;;285.17;97.50;;;;;;;;;;5091799;28;20567;-73
2022/05/13 11:26:53;;;;;;;326.08;103.65;;;;;;;;;;5094414;28;20197;-72
2022/05/13 11:29:28;;;;;;;319.60;118.95;;;;;;;;;;5093398;28;20659;-72
2022/05/13 11:32:07;;;;;;;318.23;118.47;;;;;;;;;;5093227;28;20254;-71
2022/05/13 11:34:48;;;;;;;331.30;116.38;;;;;;;;;;5085231;28;20207;-72
2022/05/13 11:37:17;;;;;;;335.48;112.20;;;;;;;;;;5074929;28;20206;-71
2022/05/13 11:39:55;;;;;;;348.25;133.35;;;;;;;;;;5076787;28;20611;-71
2022/05/13 11:43:18;;;;;;;335.98;120.38;;;;;;;;;;5092530;28;20582;-71
2022/05/13 11:45:34;;;;;;;346.88;125.05;;;;;;;;;;5075005;28;20638;-72
2022/05/13 11:48:12;;;;;;;357.52;149.10;;;;;;;;;;5082740;28;20237;-72
2022/05/13 11:50:40;;;;;;;360.10;143.07;;;;;;;;;;5074511;28;20252;-72
2022/05/13 11:53:08;;;;;;;350.17;138.60;;;;;;;;;;5079820;28;20292;-72
2022/05/13 11:55:51;;;;;;;411.23;348.95;;;;;;;;;;5084403;28;20454;-73
2022/05/13 11:58:35;;;;;;;356.33;156.07;;;;;;;;;;5080522;28;20193;-73
2022/05/13 12:01:05;;;;;;;352.83;150.85;;;;;;;;;;5084171;28;20674;-72
2022/05/13 12:04:03;;;;;;;352.60;151.10;;;;;;;;;;5075228;28;20844;-72
2022/05/13 12:06:57;;;;;;;345.95;131.82;;;;;;;;;;5073126;28;20206;-72
2022/05/13 12:09:37;;;;;;;352.45;146.73;;;;;;;;;;5089998;28;20226;-73
2022/05/13 12:12:11;;;;;;;338.40;127.78;;;;;;;;;;5094505;28;20194;-72
2022/05/13 12:14:45;;;;;;;333.08;125.80;;;;;;;;;;5094650;28;20193;-73
2022/05/13 12:17:18;;;;;;;340.17;114.90;;;;;;;;;;5091815;28;20254;-72
2022/05/13 12:19:51;;;;;;;328.40;117.18;;;;;;;;;;5092482;28;20364;-72
2022/05/13 12:22:31;;;;;;;326.00;106.57;;;;;;;;;;5095534;28;20258;-72
2022/05/13 12:25:02;;;;;;;352.48;122.80;;;;;;;;;;5097714;28;20585;-72
2022/05/13 12:27:34;;;;;;;342.55;106.28;;;;;;;;;;5085937;28;20230;-72
2022/05/13 12:30:11;;;;;;;336.30;103.05;;;;;;;;;;5092190;28;20297;-70
2022/05/13 12:32:45;;;;;;;332.45;103.57;;;;;;;;;;5081640;28;20206;-71
2022/05/13 12:38:06;;;;;;;331.55;106.18;;;;;;;;;;5075415;28;20192;-71
2022/05/13 12:40:36;;;;;;;335.60;105.75;;;;;;;;;;5078681;28;20237;-71
2022/05/13 12:43:08;;;;;;;333.77;107.53;;;;;;;;;;5077633;28;20233;-72
2022/05/13 12:45:45;;;;;;;363.95;137.55;;;;;;;;;;5096253;28;20216;-71
2022/05/13 12:48:19;;;;;;;362.35;135.52;;;;;;;;;;5099076;28;20294;-71
2022/05/13 12:50:49;;;;;;;378.13;155.38;;;;;;;;;;5099053;28;20212;-73
2022/05/13 12:53:36;;;;;;;365.60;139.65;;;;;;;;;;5098419;28;20292;-72
2022/05/13 12:56:11;;;;;;;349.38;137.77;;;;;;;;;;5076940;28;20264;-72
2022/05/13 12:59:08;;;;;;;376.90;165.52;;;;;;;;;;5078679;28;20205;-72
2022/05/13 13:01:36;;;;;;;365.33;160.32;;;;;;;;;;5079451;28;20213;-71
2022/05/13 13:04:27;;;;;;;355.13;140.50;;;;;;;;;;5084986;28;20213;-70
2022/05/13 13:06:55;;;;;;;353.20;136.55;;;;;;;;;;5099965;28;20201;-71
2022/05/13 13:09:33;;;;;;;348.13;130.18;;;;;;;;;;5099108;28;20318;-72
2022/05/13 13:12:08;;;;;;;357.00;148.75;;;;;;;;;;5099127;28;20477;-72
2022/05/13 13:14:41;;;;;;;343.65;124.28;;;;;;;;;;5093519;28;20225;-71
2022/05/13 13:17:19;;;;;;;360.25;148.88;;;;;;;;;;5093127;28;20336;-72
2022/05/13 13:20:08;;;;;;;354.30;134.32;;;;;;;;;;5092276;28;20522;-71
2022/05/13 13:22:40;;;;;;;358.17;135.25;;;;;;;;;;5076575;28;20259;-71
2022/05/13 13:25:17;;;;;;;367.33;174.32;;;;;;;;;;5083921;28;20293;-71
2022/05/13 13:27:45;;;;;;;351.35;137.05;;;;;;;;;;5097985;28;20201;-73
2022/05/13 13:30:17;;;;;;;353.23;140.30;;;;;;;;;;5095914;28;20292;-72
2022/05/13 13:32:47;;;;;;;345.50;139.43;;;;;;;;;;5096306;28;20193;-71
2022/05/13 13:35:31;;;;;;;347.23;126.15;;;;;;;;;;5081249;28;20626;-72
2022/05/13 13:38:01;;;;;;;346.73;133.85;;;;;;;;;;5075684;28;20208;-73
2022/05/13 13:40:34;;;;;;;343.13;118.50;;;;;;;;;;5077353;28;20206;-72
2022/05/13 13:43:17;;;;;;;350.98;137.50;;;;;;;;;;5089403;28;20706;-73
2022/05/13 13:45:53;;;;;;;358.02;138.35;;;;;;;;;;5091870;28;20295;-71
2022/05/13 13:48:22;;;;;;;360.48;141.85;;;;;;;;;;5076578;28;20249;-71
2022/05/13 13:50:53;;;;;;;351.38;126.68;;;;;;;;;;5075338;28;20216;-73
2022/05/13 13:53:29;;;;;;;338.48;122.35;;;;;;;;;;5081441;28;20198;-73
2022/05/13 13:56:00;;;;;;;366.05;147.75;;;;;;;;;;5096003;28;20221;-73
2022/05/13 13:58:53;;;;;;;347.00;132.02;;;;;;;;;;5095751;28;20208;-73
2022/05/13 14:01:22;;;;;;;302.10;110.95;;;;;;;;;;5072612;28;20211;-71
2022/05/13 14:04:04;;;;;;;282.85;101.97;;;;;;;;;;5087478;28;20228;-71
2022/05/13 14:06:36;;;;;;;307.65;105.18;;;;;;;;;;5081335;28;20194;-71
2022/05/13 14:09:29;;;;;;;326.33;106.32;;;;;;;;;;5095124;28;20218;-73
2022/05/13 14:12:03;;;;;;;333.85;110.70;;;;;;;;;;5105850;28;20193;-72
2022/05/13 14:17:38;;;;;;;298.77;101.45;;;;;;;;;;5092005;28;20202;-73
2022/05/13 14:20:13;;;;;;;333.38;114.88;;;;;;;;;;5075122;28;20198;-72
2022/05/13 14:22:57;;;;;;;317.52;107.05;;;;;;;;;;5080318;28;20194;-72
2022/05/13 14:25:33;;;;;;;298.00;103.15;;;;;;;;;;5094349;28;20204;-72
2022/05/13 14:28:04;;;;;;;322.40;106.28;;;;;;;;;;5096464;28;20224;-72
2022/05/13 14:30:41;;;;;;;349.60;134.95;;;;;;;;;;5093152;28;20221;-72
2022/05/13 14:33:11;;;;;;;458.58;404.95;;;;;;;;;;5096401;28;20197;-73
2022/05/13 14:35:46;;;;;;;429.48;249.05;;;;;;;;;;5097505;28;20203;-73
2022/05/13 14:41:24;;;;;;;374.60;134.00;;;;;;;;;;5081663;28;20225;-72
2022/05/13 14:43:58;;;;;;;358.77;114.75;;;;;;;;;;5092290;28;20287;-73
2022/05/13 14:46:38;;;;;;;372.95;123.65;;;;;;;;;;5075290;28;20198;-72
2022/05/13 14:49:31;;;;;;;454.15;368.73;;;;;;;;;;5084437;28;20210;-73
2022/05/13 14:52:01;;;;;;;463.15;401.65;;;;;;;;;;5097788;28;20652;-72
2022/05/13 14:54:41;;;;;;;426.17;266.23;;;;;;;;;;5096299;28;20571;-71
2022/05/13 14:57:11;;;;;;;430.98;283.98;;;;;;;;;;5097135;28;20202;-72
2022/05/13 14:59:56;;;;;;;442.83;304.05;;;;;;;;;;5083924;28;20292;-73
2022/05/13 15:02:35;;;;;;;374.65;117.35;;;;;;;;;;5076277;28;20286;-73
2022/05/13 15:05:19;;;;;;;346.05;118.05;;;;;;;;;;5093211;28;20227;-71
2022/05/13 15:07:56;;;;;;;402.38;243.95;;;;;;;;;;5094827;28;20194;-71